createdAt,value
2022-11-16T00:02:23.431Z,27.83
2022-11-16T00:05:28.683Z,27.92
2022-11-16T00:08:37.520Z,29.52
2022-11-16T00:11:42.448Z,30.02
2022-11-16T00:14:47.788Z,28.23
2022-11-16T00:17:52.914Z,28.25
2022-11-16T00:20:58.234Z,27.60
2022-11-16T00:24:04.129Z,26.20
2022-11-16T00:27:08.795Z,27.02
2022-11-16T00:30:13.858Z,27.55
2022-11-16T00:33:18.819Z,25.73
2022-11-16T00:36:23.668Z,27.67
2022-11-16T00:39:28.473Z,27.75
2022-11-16T00:42:33.457Z,29.05
2022-11-16T00:45:39.772Z,29.20
2022-11-16T00:48:44.387Z,29.23
2022-11-16T00:51:49.104Z,28.63
2022-11-16T00:54:54.140Z,30.95
2022-11-16T00:57:59.422Z,27.67
2022-11-16T01:01:09.710Z,26.13
2022-11-16T01:04:14.808Z,26.05
2022-11-16T01:07:20.966Z,24.50
2022-11-16T01:10:27.384Z,26.73
2022-11-16T01:13:32.410Z,25.73
2022-11-16T01:16:37.561Z,24.52
2022-11-16T01:19:42.240Z,24.52
2022-11-16T01:22:47.515Z,21.48
2022-11-16T01:26:01.756Z,20.73
2022-11-16T01:29:08.513Z,18.75
2022-11-16T01:32:18.336Z,18.63
2022-11-16T01:35:23.938Z,18.50
2022-11-16T01:38:30.155Z,18.48
2022-11-16T01:41:35.957Z,19.60
2022-11-16T01:44:43.108Z,20.45
2022-11-16T01:47:53.751Z,19.55
2022-11-16T01:51:01.950Z,21.20
2022-11-16T01:54:11.257Z,23.98
2022-11-16T01:57:26.170Z,22.88
2022-11-16T02:00:42.447Z,20.55
2022-11-16T02:04:11.742Z,18.33
2022-11-16T02:08:12.117Z,18.17
2022-11-16T02:11:44.369Z,17.60
2022-11-16T02:15:22.836Z,20.45
2022-11-16T02:18:52.109Z,23.65
2022-11-16T02:22:07.326Z,23.35
2022-11-16T02:25:31.392Z,22.75
2022-11-16T02:29:29.287Z,22.05
2022-11-16T02:32:50.268Z,24.20
2022-11-16T02:35:57.162Z,23.55
2022-11-16T02:39:06.485Z,21.88
2022-11-16T02:42:21.798Z,21.92
2022-11-16T02:45:31.037Z,20.70
2022-11-16T02:48:40.368Z,21.02
2022-11-16T02:51:49.344Z,20.80
2022-11-16T02:54:54.290Z,21.23
2022-11-16T02:58:02.165Z,20.92
2022-11-16T03:01:13.579Z,22.50
2022-11-16T03:04:26.915Z,22.40
2022-11-16T03:08:06.868Z,22.20
2022-11-16T03:11:30.874Z,22.30
2022-11-16T03:14:43.091Z,19.58
2022-11-16T03:17:50.440Z,18.55
2022-11-16T03:21:06.486Z,16.65
2022-11-16T03:24:11.214Z,15.65
2022-11-16T03:27:37.552Z,16.75
2022-11-16T03:30:51.014Z,15.95
2022-11-16T03:34:00.881Z,15.43
2022-11-16T03:37:06.591Z,15.30
2022-11-16T03:40:14.706Z,16.23
2022-11-16T03:43:20.556Z,15.95
2022-11-16T03:46:26.199Z,16.73
2022-11-16T03:49:31.489Z,15.35
2022-11-16T03:52:36.961Z,15.85
2022-11-16T03:55:47.027Z,16.55
2022-11-16T03:58:54.522Z,17.05
2022-11-16T04:01:59.596Z,16.40
2022-11-16T04:05:23.832Z,14.65
2022-11-16T04:08:47.358Z,16.58
2022-11-16T04:12:11.335Z,17.17
2022-11-16T04:15:35.091Z,19.00
2022-11-16T04:18:58.249Z,18.95
2022-11-16T04:22:25.178Z,17.98
2022-11-16T04:25:35.199Z,19.15
2022-11-16T04:28:40.588Z,19.95
2022-11-16T04:32:04.329Z,20.00
2022-11-16T04:35:28.273Z,19.48
2022-11-16T04:38:34.586Z,18.60
2022-11-16T04:41:59.740Z,20.35
2022-11-16T04:45:27.187Z,22.70
2022-11-16T04:48:32.757Z,23.52
2022-11-16T04:51:37.680Z,23.55
2022-11-16T04:54:42.896Z,22.90
2022-11-16T04:57:48.333Z,21.13
2022-11-16T05:00:54.433Z,20.25
2022-11-16T05:04:00.319Z,20.58
2022-11-16T05:07:11.772Z,19.30
2022-11-16T05:10:18.965Z,20.15
2022-11-16T05:13:24.245Z,19.52
2022-11-16T05:16:30.735Z,19.65
2022-11-16T05:19:53.878Z,18.52
2022-11-16T05:23:00.234Z,18.02
2022-11-16T05:26:12.044Z,19.88
2022-11-16T05:29:17.272Z,19.65
2022-11-16T05:32:23.747Z,20.20
2022-11-16T05:35:29.204Z,20.55
2022-11-16T05:38:34.233Z,21.17
2022-11-16T05:41:39.320Z,21.20
2022-11-16T05:44:44.861Z,21.65
2022-11-16T05:47:49.679Z,22.63
2022-11-16T05:51:01.297Z,22.05
2022-11-16T05:54:19.626Z,22.00
2022-11-16T05:57:24.791Z,21.50
2022-11-16T06:00:29.646Z,22.65
2022-11-16T06:03:36.210Z,23.30
2022-11-16T06:06:41.911Z,24.05
2022-11-16T06:09:47.066Z,23.75
2022-11-16T06:12:57.575Z,25.13
2022-11-16T06:16:03.481Z,25.35
2022-11-16T06:19:09.712Z,24.85
2022-11-16T06:22:14.840Z,26.95
2022-11-16T06:25:19.930Z,27.33
2022-11-16T06:28:25.517Z,28.10
2022-11-16T06:31:30.738Z,30.42
2022-11-16T06:34:38.498Z,31.83
2022-11-16T06:37:43.608Z,29.13
2022-11-16T06:40:56.729Z,29.98
2022-11-16T06:44:04.336Z,28.92
2022-11-16T06:47:13.844Z,29.08
2022-11-16T06:50:19.406Z,28.73
2022-11-16T06:53:29.203Z,28.90
2022-11-16T06:56:36.915Z,28.65
2022-11-16T06:59:42.281Z,28.15
2022-11-16T07:02:47.640Z,27.33
2022-11-16T07:05:55.661Z,27.45
2022-11-16T07:09:00.836Z,29.23
2022-11-16T07:12:10.585Z,28.52
2022-11-16T07:15:18.281Z,27.95
2022-11-16T07:18:24.822Z,29.98
2022-11-16T07:21:31.006Z,29.42
2022-11-16T07:24:37.849Z,29.92
2022-11-16T07:27:43.249Z,28.52
2022-11-16T07:30:49.867Z,29.13
2022-11-16T07:34:01.952Z,28.15
2022-11-16T07:37:25.496Z,26.58
2022-11-16T07:40:30.305Z,32.42
2022-11-16T07:43:36.240Z,28.27
2022-11-16T07:46:53.704Z,31.95
2022-11-16T07:49:58.932Z,26.30
2022-11-16T07:53:06.331Z,23.92
2022-11-16T07:56:12.715Z,21.92
2022-11-16T07:59:19.211Z,20.50
2022-11-16T08:02:24.201Z,19.42
2022-11-16T08:05:30.296Z,19.50
2022-11-16T08:08:35.491Z,23.92
2022-11-16T08:11:40.328Z,27.58
2022-11-16T08:14:45.088Z,28.00
2022-11-16T08:17:51.485Z,38.30
2022-11-16T08:20:59.215Z,42.72
2022-11-16T08:24:04.684Z,20.15
2022-11-16T08:27:15.359Z,18.02
2022-11-16T08:30:21.763Z,15.48
2022-11-16T08:33:29.259Z,15.38
2022-11-16T08:36:34.617Z,17.48
2022-11-16T08:39:40.857Z,18.17
2022-11-16T08:42:47.078Z,18.60
2022-11-16T08:45:56.164Z,17.75
2022-11-16T08:49:01.086Z,20.75
2022-11-16T08:52:06.303Z,24.55
2022-11-16T08:55:13.896Z,28.60
2022-11-16T08:58:19.237Z,32.17
2022-11-16T09:01:26.793Z,33.80
2022-11-16T09:04:36.698Z,35.45
2022-11-16T09:07:44.112Z,34.03
2022-11-16T09:10:49.097Z,34.72
2022-11-16T09:13:55.367Z,35.45
2022-11-16T09:17:00.123Z,37.00
2022-11-16T09:20:06.315Z,37.05
2022-11-16T09:23:11.464Z,35.78
2022-11-16T09:26:20.815Z,35.70
2022-11-16T09:29:27.659Z,33.58
2022-11-16T09:32:32.998Z,32.58
2022-11-16T09:35:38.128Z,32.95
2022-11-16T09:43:10.515Z,27.52
2022-11-16T09:46:47.583Z,26.70
2022-11-16T09:50:02.756Z,24.13
2022-11-16T09:53:45.147Z,24.50
2022-11-16T09:56:53.680Z,23.75
2022-11-16T10:00:05.357Z,22.73
2022-11-16T10:03:17.807Z,22.17
2022-11-16T10:06:29.257Z,18.77
2022-11-16T10:09:34.748Z,19.60
2022-11-16T10:12:51.918Z,18.55
2022-11-16T10:16:33.537Z,18.10
2022-11-16T10:19:54.232Z,17.63
2022-11-16T10:23:20.194Z,17.67
2022-11-16T10:26:39.101Z,16.98
2022-11-16T10:29:58.711Z,18.63
2022-11-16T10:33:12.714Z,17.48
2022-11-16T10:36:18.355Z,17.60
2022-11-16T10:39:24.458Z,17.48
2022-11-16T10:42:36.770Z,18.10
2022-11-16T10:46:12.798Z,17.75
2022-11-16T10:50:08.768Z,17.00
2022-11-16T10:53:25.251Z,16.83
2022-11-16T10:56:41.399Z,17.13
2022-11-16T10:59:50.016Z,16.08
2022-11-16T11:02:54.890Z,16.08
2022-11-16T11:06:00.037Z,16.60
2022-11-16T11:09:34.940Z,18.05
2022-11-16T11:13:11.253Z,20.40
2022-11-16T11:16:18.795Z,19.58
2022-11-16T11:19:28.140Z,19.95
2022-11-16T11:22:56.757Z,20.60
2022-11-16T11:26:01.520Z,16.83
2022-11-16T11:29:23.844Z,16.02
2022-11-16T11:32:38.947Z,14.32
2022-11-16T11:35:43.623Z,15.98
2022-11-16T11:38:59.179Z,14.63
2022-11-16T11:42:12.559Z,14.23
2022-11-16T11:45:17.861Z,13.80
2022-11-16T11:48:49.579Z,14.75
2022-11-16T11:51:57.774Z,15.20
2022-11-16T11:55:03.682Z,13.77
2022-11-16T11:58:16.971Z,15.75
2022-11-16T12:02:18.783Z,14.55
2022-11-16T12:05:48.472Z,14.90
2022-11-16T12:09:24.569Z,16.73
2022-11-16T12:12:53.535Z,17.85
2022-11-16T12:16:29.411Z,15.07
2022-11-16T12:20:05.467Z,15.38
2022-11-16T12:23:44.718Z,14.35
2022-11-16T12:27:05.607Z,15.02
2022-11-16T12:30:15.335Z,15.23
2022-11-16T12:33:38.315Z,14.23
2022-11-16T12:37:16.786Z,13.27
2022-11-16T12:40:45.694Z,13.77
2022-11-16T12:44:08.827Z,13.18
2022-11-16T12:47:37.471Z,13.65
2022-11-16T12:50:50.403Z,12.60
2022-11-16T12:54:20.156Z,12.85
2022-11-16T12:57:40.880Z,13.27
2022-11-16T13:01:10.797Z,12.15
2022-11-16T13:04:24.365Z,10.00
2022-11-16T13:07:46.136Z,9.25
2022-11-16T13:11:07.601Z,8.73
2022-11-16T13:14:38.158Z,7.95
2022-11-16T13:17:53.503Z,6.55
2022-11-16T13:21:12.234Z,6.40
2022-11-16T13:24:42.358Z,5.70
2022-11-16T13:27:59.999Z,6.00
2022-11-16T13:31:12.876Z,5.43
2022-11-16T13:34:32.225Z,4.80
2022-11-16T13:37:37.059Z,4.10
2022-11-16T13:40:42.129Z,3.95
2022-11-16T13:43:50.198Z,3.47
2022-11-16T13:47:04.843Z,2.80
2022-11-16T13:50:23.503Z,2.60
2022-11-16T13:57:34.136Z,2.70
2022-11-16T14:00:40.090Z,2.58
2022-11-16T14:03:52.375Z,2.47
2022-11-16T14:06:59.387Z,2.22
2022-11-16T14:10:05.793Z,2.80
2022-11-16T14:13:39.280Z,2.75
2022-11-16T14:16:50.595Z,2.50
2022-11-16T14:19:55.777Z,2.67
2022-11-16T14:23:36.055Z,2.42
2022-11-16T14:27:05.699Z,2.50
2022-11-16T14:30:31.059Z,2.42
2022-11-16T14:33:37.492Z,2.80
2022-11-16T14:36:45.548Z,2.78
2022-11-16T14:39:51.688Z,3.30
2022-11-16T14:43:19.994Z,2.85
2022-11-16T14:46:35.829Z,2.70
2022-11-16T14:49:41.637Z,2.67
2022-11-16T14:52:51.169Z,3.03
2022-11-16T14:56:12.121Z,2.70
2022-11-16T14:59:17.530Z,2.70
2022-11-16T15:02:26.817Z,2.63
2022-11-16T15:05:35.844Z,2.90
2022-11-16T15:08:48.056Z,3.08
2022-11-16T15:12:11.695Z,2.97
2022-11-16T15:15:19.279Z,3.05
2022-11-16T15:18:23.920Z,3.15
2022-11-16T15:21:29.292Z,3.40
2022-11-16T15:24:35.019Z,3.40
2022-11-16T15:27:41.540Z,3.95
2022-11-16T15:30:54.401Z,3.90
2022-11-16T15:33:59.220Z,4.35
2022-11-16T15:37:04.008Z,4.32
2022-11-16T15:40:09.686Z,4.40
2022-11-16T15:43:15.236Z,4.18
2022-11-16T15:46:20.092Z,4.63
2022-11-16T15:49:38.315Z,4.32
2022-11-16T15:52:47.091Z,4.95
2022-11-16T15:55:52.462Z,4.82
2022-11-16T15:59:01.347Z,5.38
2022-11-16T16:02:18.059Z,5.20
2022-11-16T16:05:43.627Z,5.00
2022-11-16T16:09:04.859Z,4.97
2022-11-16T16:12:24.672Z,5.05
2022-11-16T16:15:33.993Z,4.90
2022-11-16T16:18:43.371Z,5.05
2022-11-16T16:21:48.412Z,4.93
2022-11-16T16:24:53.626Z,5.88
2022-11-16T16:27:59.120Z,6.05
2022-11-16T16:31:03.920Z,6.22
2022-11-16T16:34:12.153Z,4.82
2022-11-16T16:37:17.368Z,5.90
2022-11-16T16:40:22.906Z,5.65
2022-11-16T16:43:27.954Z,5.22
2022-11-16T16:46:32.810Z,5.47
2022-11-16T16:49:37.897Z,6.30
2022-11-16T16:52:42.900Z,6.00
2022-11-16T16:55:48.913Z,5.63
2022-11-16T16:58:54.185Z,5.43
2022-11-16T17:01:59.836Z,5.75
2022-11-16T17:05:05.159Z,5.47
2022-11-16T17:08:10.182Z,5.97
2022-11-16T17:11:15.993Z,5.72
2022-11-16T17:14:24.355Z,5.80
2022-11-16T17:17:29.235Z,6.35
2022-11-16T17:20:34.302Z,5.97
2022-11-16T17:23:39.438Z,6.00
2022-11-16T17:26:48.205Z,7.25
2022-11-16T17:29:53.541Z,6.72
2022-11-16T17:32:58.449Z,6.68
2022-11-16T17:36:04.380Z,6.43
2022-11-16T17:39:09.254Z,7.13
2022-11-16T17:42:14.462Z,6.43
2022-11-16T17:45:19.261Z,5.97
2022-11-16T17:48:24.278Z,5.68
2022-11-16T17:51:31.712Z,5.85
2022-11-16T17:54:36.854Z,5.70
2022-11-16T17:57:41.859Z,5.53
2022-11-16T18:00:49.677Z,5.95
2022-11-16T18:03:54.641Z,5.35
2022-11-16T18:07:00.652Z,4.85
2022-11-16T18:10:06.104Z,4.90
2022-11-16T18:13:11.095Z,5.38
2022-11-16T18:16:21.371Z,6.05
2022-11-16T18:19:25.939Z,4.68
2022-11-16T18:22:30.791Z,5.43
2022-11-16T18:25:36.870Z,5.07
2022-11-16T18:28:43.848Z,4.20
2022-11-16T18:31:49.080Z,4.90
2022-11-16T18:34:54.077Z,4.28
2022-11-16T18:37:59.140Z,4.68
2022-11-16T18:41:07.732Z,4.53
2022-11-16T18:44:13.592Z,4.78
2022-11-16T18:47:18.497Z,5.28
2022-11-16T18:50:26.814Z,4.88
2022-11-16T18:53:33.345Z,3.90
2022-11-16T18:56:38.860Z,3.25
2022-11-16T18:59:43.862Z,3.05
2022-11-16T19:02:48.775Z,2.63
2022-11-16T19:06:09.271Z,3.08
2022-11-16T19:09:14.384Z,3.00
2022-11-16T19:12:19.286Z,3.22
2022-11-16T19:15:25.471Z,3.25
2022-11-16T19:18:30.374Z,3.22
2022-11-16T19:21:35.325Z,2.67
2022-11-16T19:24:40.377Z,2.42
2022-11-16T19:27:45.354Z,2.30
2022-11-16T19:30:50.287Z,2.70
2022-11-16T19:34:00.067Z,2.20
2022-11-16T19:37:05.212Z,2.35
2022-11-16T19:40:10.917Z,2.20
2022-11-16T19:43:16.231Z,2.30
2022-11-16T19:46:21.527Z,2.38
2022-11-16T19:49:26.459Z,2.30
2022-11-16T19:52:31.387Z,2.47
2022-11-16T19:55:36.144Z,2.08
2022-11-16T19:58:42.033Z,2.90
2022-11-16T20:01:46.939Z,2.33
2022-11-16T20:04:51.932Z,2.22
2022-11-16T20:07:56.754Z,2.10
2022-11-16T20:11:01.863Z,2.10
2022-11-16T20:14:10.231Z,2.38
2022-11-16T20:17:15.179Z,2.63
2022-11-16T20:20:20.433Z,2.22
2022-11-16T20:23:25.223Z,2.20
2022-11-16T20:26:32.155Z,2.28
2022-11-16T20:29:37.237Z,2.33
2022-11-16T20:32:42.352Z,2.38
2022-11-16T20:35:47.318Z,2.45
2022-11-16T20:38:52.870Z,2.03
2022-11-16T20:41:57.627Z,2.00
2022-11-16T20:45:02.993Z,1.88
2022-11-16T20:48:07.739Z,2.05
2022-11-16T20:51:16.797Z,2.10
2022-11-16T20:54:22.013Z,2.00
2022-11-16T20:57:27.181Z,1.83
2022-11-16T21:00:32.174Z,1.70
2022-11-16T21:03:37.498Z,2.00
2022-11-16T21:06:42.562Z,1.80
2022-11-16T21:10:05.714Z,1.55
2022-11-16T21:13:37.507Z,1.60
2022-11-16T21:16:42.662Z,1.40
2022-11-16T21:20:12.182Z,1.75
2022-11-16T21:23:12.752Z,1.67
2022-11-16T21:26:21.146Z,1.77
2022-11-16T21:29:27.188Z,1.60
2022-11-16T21:32:32.632Z,1.45
2022-11-16T21:35:37.837Z,1.67
2022-11-16T21:38:43.179Z,1.75
2022-11-16T21:41:48.193Z,1.75
2022-11-16T21:44:52.956Z,1.42
2022-11-16T21:47:58.151Z,1.42
2022-11-16T21:51:12.327Z,1.60
2022-11-16T21:54:17.047Z,1.52
2022-11-16T21:57:22.526Z,1.92
2022-11-16T22:00:27.827Z,1.45
2022-11-16T22:03:33.497Z,1.40
2022-11-16T22:06:57.250Z,1.30
2022-11-16T22:10:08.333Z,1.48
2022-11-16T22:13:13.243Z,1.67
2022-11-16T22:16:20.002Z,1.25
2022-11-16T22:19:24.691Z,1.30
2022-11-16T22:22:29.674Z,1.40
2022-11-16T22:25:34.537Z,1.17
2022-11-16T22:28:39.713Z,1.40
2022-11-16T22:31:44.693Z,1.83
2022-11-16T22:34:51.315Z,1.70
2022-11-16T22:37:56.271Z,1.70
2022-11-16T22:41:01.254Z,1.60
2022-11-16T22:44:06.072Z,1.48
2022-11-16T22:47:10.987Z,1.67
2022-11-16T22:50:15.833Z,1.70
2022-11-16T22:53:20.746Z,1.52
2022-11-16T22:56:25.863Z,1.60
2022-11-16T22:59:30.564Z,1.70
2022-11-16T23:02:35.737Z,1.60
2022-11-16T23:05:40.669Z,2.22
2022-11-16T23:08:45.474Z,1.75
2022-11-16T23:12:08.588Z,1.60
2022-11-16T23:15:32.480Z,1.83
2022-11-16T23:18:37.480Z,1.92
2022-11-16T23:22:01.052Z,2.00
2022-11-16T23:25:26.927Z,1.73
2022-11-16T23:28:31.589Z,2.00
2022-11-16T23:31:37.681Z,2.17
2022-11-16T23:34:42.979Z,2.00
2022-11-16T23:37:55.467Z,2.08
2022-11-16T23:41:20.034Z,2.00
2022-11-16T23:44:24.613Z,2.15
2022-11-16T23:47:29.412Z,2.00
2022-11-16T23:50:34.764Z,2.30
2022-11-16T23:53:39.792Z,2.50
2022-11-16T23:56:44.826Z,2.72
2022-11-16T23:59:49.580Z,2.60
